Time;durP1;ratioP1;P1;durP2;ratioP2;P2;SDS_P1;SDS_P2;PMS_P1;PMS_P2;Temp;Humidity;BMP_temperature;BMP_pressure;BME280_temperature;BME280_humidity;BME280_pressure;Samples;Min_cycle;Max_cycle;Signal;HPM_P1;HPM_P2
2021/08/18 00:00:05;;;;;;;5.45;3.55;;;15.00;67.90;;;14.86;52.92;95027.63;5060693;28;20303;-78
2021/08/18 00:02:32;;;;;;;5.72;3.92;;;15.00;68.00;;;14.89;52.98;95025.38;5023339;28;20657;-78
2021/08/18 00:05:00;;;;;;;8.57;4.38;;;15.10;67.90;;;14.91;52.93;95033.06;5014934;28;20271;-77
2021/08/18 00:07:29;;;;;;;4.63;3.53;;;15.10;68.00;;;14.91;53.15;95027.78;5035879;28;20739;-78
2021/08/18 00:09:56;;;;;;;6.32;4.10;;;15.10;68.00;;;14.93;53.36;95022.28;5018559;28;20223;-78
2021/08/18 00:12:24;;;;;;;5.40;3.90;;;15.10;68.00;;;14.94;53.31;95027.38;5051125;28;20204;-78
2021/08/18 00:14:51;;;;;;;6.00;4.30;;;15.10;68.20;;;14.95;53.10;95023.72;5034778;28;20323;-78
2021/08/18 00:17:19;;;;;;;5.05;3.85;;;15.20;68.00;;;14.95;53.23;95028.16;5034077;28;20198;-78
2021/08/18 00:19:47;;;;;;;5.40;3.58;;;15.10;68.10;;;14.94;52.83;95026.56;5033322;28;20227;-78
2021/08/18 00:22:14;;;;;;;5.50;3.90;;;15.10;68.00;;;14.95;53.16;95026.34;5018068;28;20572;-78
2021/08/18 00:24:41;;;;;;;7.43;4.10;;;15.10;67.90;;;14.96;53.30;95030.59;5050881;28;20614;-78
2021/08/18 00:27:08;;;;;;;6.68;3.85;;;15.10;68.00;;;14.93;53.18;95028.41;5051274;28;20201;-78
2021/08/18 00:29:41;;;;;;;6.13;4.50;;;15.20;68.10;;;14.91;53.46;95030.44;5018814;28;20223;-78
2021/08/18 00:32:09;;;;;;;5.82;4.15;;;15.20;68.10;;;14.93;53.59;95030.22;5034636;28;20683;-78
2021/08/18 00:34:37;;;;;;;6.65;4.07;;;15.30;68.20;;;14.91;53.48;95027.00;5034291;28;20203;-78
2021/08/18 00:37:04;;;;;;;6.13;4.28;;;15.10;68.20;;;14.93;53.81;95038.13;5034535;28;20199;-78
2021/08/18 00:39:33;;;;;;;8.45;5.03;;;15.10;68.10;;;14.88;53.75;95028.25;5034666;28;20246;-78
2021/08/18 00:42:00;;;;;;;6.35;4.55;;;15.20;68.20;;;14.92;53.77;95033.91;5034464;28;20206;-78
2021/08/18 00:44:32;;;;;;;5.57;4.45;;;15.20;68.30;;;14.92;53.70;95041.81;5034172;28;20199;-79
2021/08/18 00:46:59;;;;;;;5.55;4.40;;;15.20;68.40;;;14.91;54.05;95045.47;5050880;28;20270;-78
2021/08/18 00:49:27;;;;;;;6.75;4.72;;;15.30;68.60;;;14.89;53.73;95038.59;5017206;28;20222;-78
2021/08/18 00:51:56;;;;;;;7.28;4.50;;;15.20;68.60;;;14.92;54.05;95047.09;5051564;28;20199;-78
2021/08/18 00:54:26;;;;;;;5.63;4.22;;;15.20;69.60;;;14.91;54.26;95056.84;5018667;28;20645;-78
2021/08/18 00:56:54;;;;;;;5.32;4.28;;;15.20;69.10;;;14.90;54.11;95047.28;5015946;28;20203;-78
2021/08/18 00:59:22;;;;;;;6.38;4.32;;;15.10;68.80;;;14.88;53.91;95052.00;5014666;28;20595;-78
2021/08/18 01:01:49;;;;;;;6.90;4.60;;;15.20;68.90;;;14.83;54.70;95049.19;5014707;28;20212;-78
2021/08/18 01:04:17;;;;;;;5.35;4.03;;;15.10;68.90;;;14.83;54.66;95057.94;5030942;28;20216;-78
2021/08/18 01:06:46;;;;;;;8.63;5.43;;;15.10;68.90;;;14.80;54.54;95046.97;5014445;28;20227;-78
2021/08/18 01:09:16;;;;;;;7.10;5.07;;;15.10;69.10;;;14.75;55.47;95052.09;5048682;28;20308;-78
2021/08/18 01:11:49;;;;;;;8.07;5.40;;;15.10;69.30;;;14.70;55.63;95044.81;5034053;28;20229;-78
2021/08/18 01:14:19;;;;;;;8.57;5.05;;;15.10;69.60;;;14.64;55.74;95048.28;5014284;28;20278;-78
2021/08/18 01:16:48;;;;;;;7.13;4.75;;;15.00;69.60;;;14.60;55.93;95044.44;5030914;28;20210;-78
2021/08/18 01:19:19;;;;;;;7.80;4.60;;;15.00;69.80;;;14.56;56.03;95036.97;5015561;28;20291;-78
2021/08/18 01:21:49;;;;;;;6.10;4.70;;;15.10;70.10;;;14.54;55.69;95035.56;5018245;28;20247;-78
2021/08/18 01:24:18;;;;;;;5.85;4.03;;;15.00;70.00;;;14.51;55.58;95033.34;5034617;28;20210;-79
2021/08/18 01:26:46;;;;;;;6.63;4.68;;;14.90;70.00;;;14.51;55.68;95041.25;5018317;28;20215;-78
2021/08/18 01:29:14;;;;;;;6.78;4.60;;;15.00;69.90;;;14.47;56.27;95043.50;5017977;28;20216;-78
2021/08/18 01:31:42;;;;;;;6.82;4.30;;;14.90;70.00;;;14.44;55.89;95043.94;5034344;28;20212;-78
2021/08/18 01:34:10;;;;;;;7.25;4.72;;;14.80;70.10;;;14.39;55.73;95030.56;5044082;28;20192;-78
2021/08/18 01:36:38;;;;;;;5.45;3.88;;;14.70;70.00;;;14.45;55.74;95034.19;5034405;28;20240;-78
2021/08/18 01:39:08;;;;;;;6.10;4.25;;;14.80;70.10;;;14.46;55.87;95030.53;5052556;28;20202;-78
2021/08/18 01:41:36;;;;;;;6.25;4.55;;;14.80;70.30;;;14.46;56.21;95027.91;5052213;28;20238;-78
2021/08/18 01:44:04;;;;;;;7.70;4.32;;;14.80;70.30;;;14.46;55.87;95027.91;5020963;28;20203;-78
2021/08/18 01:46:31;;;;;;;5.50;4.35;;;14.80;70.30;;;14.45;55.95;95026.28;5054004;28;20223;-78
2021/08/18 01:48:59;;;;;;;6.65;4.43;;;14.70;70.30;;;14.48;55.80;95031.13;5053750;28;20244;-78
2021/08/18 01:51:26;;;;;;;6.30;4.32;;;14.70;70.30;;;14.47;55.64;95030.31;5017775;28;20223;-78
2021/08/18 01:53:54;;;;;;;5.05;4.00;;;14.70;70.30;;;14.49;55.64;95027.44;5033851;28;20271;-79
2021/08/18 01:56:22;;;;;;;6.63;4.60;;;14.70;70.40;;;14.49;55.89;95024.81;5017921;28;20223;-78
2021/08/18 01:58:49;;;;;;;5.65;3.90;;;14.70;70.40;;;14.50;55.30;95031.72;5001164;28;20188;-78
2021/08/18 02:01:18;;;;;;;6.32;4.40;;;14.70;70.40;;;14.50;55.97;95024.63;5036526;28;20288;-78
2021/08/18 02:03:47;;;;;;;5.03;3.97;;;14.80;70.70;;;14.52;55.92;95025.19;5037239;28;20199;-78
2021/08/18 02:06:14;;;;;;;5.13;3.75;;;14.80;70.70;;;14.54;56.00;95033.72;5053547;28;20221;-78
2021/08/18 02:08:41;;;;;;;7.22;4.22;;;14.80;70.80;;;14.56;56.23;95028.22;5033020;28;20219;-79
2021/08/18 02:11:09;;;;;;;6.63;4.00;;;14.80;70.70;;;14.57;55.90;95025.38;5017224;28;20219;-79
2021/08/18 02:13:37;;;;;;;5.45;4.00;;;14.80;70.70;;;14.55;56.06;95016.06;5033377;28;20192;-79
2021/08/18 02:16:04;;;;;;;5.15;3.65;;;14.80;70.70;;;14.57;55.99;95009.56;5016996;28;20238;-78
2021/08/18 02:18:32;;;;;;;7.00;4.32;;;14.90;70.90;;;14.60;56.12;95015.41;5033107;28;20196;-78
2021/08/18 02:20:59;;;;;;;6.88;4.68;;;14.90;70.90;;;14.62;55.84;95014.16;5051789;28;20310;-78
2021/08/18 02:23:27;;;;;;;4.97;4.13;;;14.90;71.10;;;14.63;56.18;95020.28;5020191;28;20192;-79
2021/08/18 02:25:54;;;;;;;7.47;4.38;;;14.90;71.00;;;14.65;56.33;95010.31;5053138;28;20216;-78
2021/08/18 02:28:22;;;;;;;5.28;3.90;;;14.90;71.00;;;14.65;56.19;95008.50;5045472;28;20213;-78
2021/08/18 02:30:49;;;;;;;6.03;4.10;;;14.80;70.90;;;14.67;56.15;95013.56;5032442;28;20216;-79
2021/08/18 02:33:16;;;;;;;5.55;4.00;;;14.90;71.00;;;14.69;56.41;95014.94;5033050;28;20196;-78
2021/08/18 02:35:44;;;;;;;6.07;4.22;;;14.90;70.90;;;14.69;55.98;95009.69;5016607;28;20220;-78
2021/08/18 02:38:11;;;;;;;6.00;4.15;;;14.90;70.90;;;14.70;56.01;95008.66;5016619;28;20204;-78
2021/08/18 02:40:38;;;;;;;4.70;3.92;;;14.90;71.00;;;14.73;56.39;95010.88;5049352;28;20236;-79
2021/08/18 02:43:06;;;;;;;6.25;3.92;;;14.90;71.10;;;14.71;56.33;95012.91;5029325;28;20678;-79
2021/08/18 02:45:34;;;;;;;8.93;4.35;;;14.90;70.90;;;14.75;56.31;95018.56;5036375;28;20231;-78
2021/08/18 02:48:02;;;;;;;5.95;4.57;;;14.90;70.90;;;14.73;56.09;95010.06;5019748;28;20218;-78
2021/08/18 02:50:31;;;;;;;6.65;4.45;;;14.90;70.90;;;14.71;56.29;95012.13;5051834;28;20330;-78
2021/08/18 02:52:58;;;;;;;4.88;3.85;;;14.90;70.90;;;14.70;56.31;95008.66;5019729;28;20199;-78
2021/08/18 02:55:28;;;;;;;6.32;4.38;;;14.90;70.80;;;14.71;56.09;95014.75;5035577;28;20311;-77
2021/08/18 02:57:58;;;;;;;7.05;4.43;;;15.10;71.00;;;14.69;56.34;95006.25;5031034;28;20211;-79
2021/08/18 03:00:25;;;;;;;6.68;4.05;;;14.90;71.00;;;14.73;56.30;95021.44;5030413;28;20282;-78
2021/08/18 03:02:52;;;;;;;7.72;4.40;;;15.00;71.00;;;14.72;56.49;95009.25;5047734;28;20758;-78
2021/08/18 03:05:20;;;;;;;5.50;4.00;;;14.90;71.00;;;14.69;56.44;95009.69;5044080;28;20282;-77
2021/08/18 03:07:47;;;;;;;7.10;4.57;;;15.00;72.00;;;14.68;56.33;95004.63;5038987;28;20203;-78
2021/08/18 03:10:14;;;;;;;6.07;4.32;;;14.90;71.10;;;14.71;56.47;95009.47;5012786;28;20243;-78
2021/08/18 03:12:42;;;;;;;6.82;4.47;;;14.90;71.00;;;14.70;56.33;95007.88;5031910;28;20203;-78
2021/08/18 03:15:10;;;;;;;5.47;4.13;;;15.00;71.10;;;14.69;56.65;95008.88;5048689;28;20299;-78
2021/08/18 03:17:37;;;;;;;5.53;3.88;;;14.90;71.00;;;14.67;56.40;95009.09;5034407;28;20289;-78
2021/08/18 03:20:06;;;;;;;6.75;4.45;;;14.90;71.10;;;14.66;56.52;94999.56;5035722;28;20203;-78
2021/08/18 03:22:35;;;;;;;6.07;4.38;;;14.90;71.10;;;14.65;56.24;94995.31;5035055;28;20199;-78
2021/08/18 03:25:04;;;;;;;5.90;4.55;;;14.90;71.00;;;14.61;56.63;94996.72;5035429;28;20207;-78
2021/08/18 03:27:32;;;;;;;6.95;4.38;;;14.90;71.20;;;14.57;56.63;94996.34;5031674;28;20306;-78
2021/08/18 03:29:59;;;;;;;6.43;4.68;;;14.90;71.10;;;14.58;56.65;95005.06;5015803;28;20231;-78
2021/08/18 03:32:27;;;;;;;7.40;4.25;;;14.90;71.00;;;14.55;56.58;95002.88;4999171;28;20211;-78
2021/08/18 03:34:54;;;;;;;5.95;4.40;;;14.90;71.10;;;14.53;56.59;95003.06;5015352;28;20227;-78
2021/08/18 03:37:21;;;;;;;6.22;4.47;;;14.90;71.10;;;14.53;56.85;95004.91;5022247;28;20710;-78
2021/08/18 03:39:48;;;;;;;5.78;4.22;;;14.80;71.20;;;14.52;56.58;95009.38;5030493;28;20686;-79
2021/08/18 03:42:15;;;;;;;5.65;4.25;;;14.90;71.30;;;14.53;56.75;95007.53;5012651;28;20713;-78
2021/08/18 03:44:43;;;;;;;9.20;4.93;;;14.70;71.10;;;14.53;56.91;95007.53;5014924;28;20224;-78
2021/08/18 03:47:10;;;;;;;6.40;4.32;;;14.80;71.30;;;14.53;56.72;95004.91;5012870;28;20228;-79
2021/08/18 03:49:37;;;;;;;6.97;4.68;;;14.80;71.30;;;14.53;57.24;95015.47;5012419;28;20322;-78
2021/08/18 03:52:06;;;;;;;6.85;4.75;;;14.80;71.50;;;14.55;57.58;95006.31;5013207;28;20203;-79
2021/08/18 03:54:34;;;;;;;6.80;4.93;;;14.80;71.50;;;14.57;57.06;95012.19;5039855;28;20204;-78
2021/08/18 03:57:01;;;;;;;6.10;4.30;;;14.80;71.50;;;14.58;57.07;95016.41;5016105;28;20187;-78
2021/08/18 03:59:28;;;;;;;5.93;4.43;;;14.90;71.50;;;14.62;56.54;95019.44;5028690;28;20290;-79
2021/08/18 04:01:55;;;;;;;7.07;4.72;;;14.80;71.50;;;14.62;57.06;95018.66;5031723;28;20206;-78
2021/08/18 04:04:22;;;;;;;5.22;4.18;;;14.80;71.50;;;14.62;56.81;95008.88;5034971;28;20206;-78
2021/08/18 04:06:49;;;;;;;5.97;4.32;;;14.80;71.50;;;14.66;56.97;95022.50;5033069;28;20284;-78
2021/08/18 04:09:17;;;;;;;9.32;4.65;;;14.80;71.40;;;14.67;56.83;95021.47;5014861;28;20254;-78
2021/08/18 04:11:44;;;;;;;6.85;4.93;;;14.80;71.40;;;14.67;56.96;95014.38;5031314;28;20565;-78
2021/08/18 04:14:11;;;;;;;7.68;4.55;;;14.90;71.50;;;14.69;56.73;95017.59;5014915;28;20287;-78
2021/08/18 04:16:39;;;;;;;7.00;4.93;;;14.90;71.40;;;14.69;56.82;95017.59;4999188;28;20246;-78
2021/08/18 04:19:06;;;;;;;6.60;4.30;;;15.00;71.60;;;14.68;56.81;95016.00;5031120;28;20290;-79
2021/08/18 04:21:33;;;;;;;6.57;4.60;;;14.90;71.50;;;14.71;57.11;95022.69;5014940;28;20318;-78
2021/08/18 04:24:00;;;;;;;7.13;4.68;;;14.90;71.50;;;14.71;56.90;95015.56;5047819;28;20721;-79
2021/08/18 04:26:27;;;;;;;6.93;4.35;;;15.00;71.50;;;14.75;56.67;95017.78;5032339;28;20212;-79
2021/08/18 04:28:56;;;;;;;7.80;5.13;;;15.00;71.50;;;14.77;56.88;95021.81;5047727;28;20196;-79
2021/08/18 04:31:24;;;;;;;6.00;4.38;;;14.90;71.60;;;14.80;56.82;95028.50;5034884;28;20211;-78
2021/08/18 04:33:51;;;;;;;8.88;5.15;;;15.00;71.60;;;14.80;57.16;95018.72;5034441;28;20239;-79
2021/08/18 04:36:19;;;;;;;8.75;4.70;;;15.00;71.70;;;14.82;56.96;95018.53;5034233;28;20695;-79
2021/08/18 04:38:46;;;;;;;6.80;4.57;;;15.00;71.60;;;14.86;57.21;95017.06;5034381;28;20343;-78
2021/08/18 04:41:13;;;;;;;6.30;4.45;;;15.00;71.70;;;14.92;56.89;95015.41;5050811;28;20223;-79
2021/08/18 04:43:40;;;;;;;7.25;4.70;;;15.00;71.70;;;14.98;56.98;95007.41;5050915;28;20262;-79
2021/08/18 04:46:07;;;;;;;6.15;4.88;;;15.10;71.80;;;15.05;57.03;95020.56;5049528;28;20219;-80
2021/08/18 04:48:35;;;;;;;6.65;4.28;;;15.10;71.90;;;15.09;56.88;95010.34;5051997;28;20192;-78
2021/08/18 04:51:02;;;;;;;6.65;4.57;;;15.20;71.90;;;15.17;56.75;95026.75;5018157;28;20227;-78
2021/08/18 04:53:34;;;;;;;6.68;4.38;;;15.20;71.80;;;15.19;56.72;95024.69;5050712;28;20199;-79
2021/08/18 04:56:01;;;;;;;6.20;4.68;;;15.30;71.90;;;15.24;56.76;95025.88;5038729;28;20301;-78
2021/08/18 04:58:29;;;;;;;7.22;4.88;;;15.30;71.90;;;15.28;56.78;95022.59;5018139;28;20231;-79
2021/08/18 05:00:56;;;;;;;7.80;5.07;;;15.30;71.80;;;15.30;56.62;95017.09;5022328;28;20712;-79
2021/08/18 05:03:24;;;;;;;5.85;4.65;;;15.40;71.80;;;15.35;56.88;95018.03;5034675;28;20608;-79
2021/08/18 05:05:52;;;;;;;8.00;4.53;;;15.40;71.70;;;15.41;56.75;95023.50;5038089;28;20222;-79
2021/08/18 05:08:19;;;;;;;6.72;4.93;;;15.40;71.60;;;15.40;56.74;95025.31;5038287;28;20222;-80
2021/08/18 05:10:46;;;;;;;7.40;4.97;;;15.50;71.60;;;15.40;56.52;95022.66;5021635;28;20234;-78
2021/08/18 05:13:14;;;;;;;7.78;5.07;;;15.50;71.50;;;15.42;56.42;95015.34;5054468;28;20222;-79
2021/08/18 05:15:41;;;;;;;6.47;4.63;;;15.50;71.50;;;15.45;56.73;95029.94;5055587;28;20306;-79
2021/08/18 05:18:08;;;;;;;6.97;5.10;;;15.50;71.50;;;15.49;56.65;95033.75;5037501;28;20231;-79
2021/08/18 05:20:35;;;;;;;7.10;4.55;;;15.60;71.60;;;15.50;56.49;95025.63;5054248;28;20215;-79
2021/08/18 05:23:03;;;;;;;8.68;5.75;;;15.60;71.60;;;15.53;56.77;95027.00;5018068;28;20218;-78
2021/08/18 05:25:30;;;;;;;7.38;5.55;;;15.60;71.50;;;15.55;56.62;95042.66;5034454;28;20208;-79
2021/08/18 05:28:03;;;;;;;6.93;4.75;;;15.70;71.50;;;15.57;56.62;95035.31;5034197;28;20196;-78
2021/08/18 05:30:32;;;;;;;7.55;5.03;;;15.70;71.50;;;15.58;56.71;95042.22;5017654;28;20650;-79
2021/08/18 05:32:59;;;;;;;8.43;5.70;;;15.70;71.50;;;15.57;56.53;95040.59;5001627;28;20228;-77
2021/08/18 05:35:27;;;;;;;7.78;5.57;;;15.70;71.40;;;15.56;56.58;95038.97;5039222;28;20215;-78
2021/08/18 05:37:54;;;;;;;9.25;5.57;;;15.80;71.40;;;15.60;56.42;95050.72;5036558;28;20199;-78
2021/08/18 05:40:22;;;;;;;7.53;5.35;;;15.80;71.40;;;15.62;56.69;95033.59;5027166;28;20215;-77
2021/08/18 05:42:49;;;;;;;7.10;5.13;;;15.80;71.50;;;15.67;56.84;95051.47;5019281;28;20206;-78
2021/08/18 05:45:16;;;;;;;6.97;5.05;;;15.70;71.50;;;15.72;56.35;95043.69;5037248;28;20236;-78
2021/08/18 05:47:44;;;;;;;7.13;5.00;;;15.80;71.60;;;15.78;56.41;95048.09;5015353;28;20192;-77
2021/08/18 05:50:11;;;;;;;7.93;5.55;;;15.80;71.70;;;15.83;56.32;95036.88;5031031;28;20251;-78
2021/08/18 05:52:39;;;;;;;7.68;5.28;;;15.90;71.70;;;15.86;56.70;95047.03;5039714;28;20188;-78
2021/08/18 05:55:08;;;;;;;7.82;5.28;;;16.00;71.60;;;15.88;56.64;95049.44;5033987;28;20298;-78
2021/08/18 05:57:35;;;;;;;8.68;6.15;;;15.90;71.40;;;15.86;56.30;95048.88;5042740;28;20195;-78
2021/08/18 06:00:04;;;;;;;7.50;5.22;;;16.00;71.50;;;15.89;56.48;95048.41;5011157;28;20775;-79
2021/08/18 06:02:32;;;;;;;9.00;5.53;;;16.00;71.50;;;15.92;56.47;95048.78;5042759;28;20222;-78
2021/08/18 06:04:59;;;;;;;7.22;4.82;;;16.00;71.50;;;15.99;56.38;95044.22;5027476;28;20232;-77
2021/08/18 06:07:26;;;;;;;8.18;5.55;;;16.00;71.60;;;16.07;56.66;95044.94;5041384;28;20203;-77
2021/08/18 06:09:54;;;;;;;8.88;4.88;;;16.10;71.90;;;16.20;56.39;95057.19;5028415;28;20330;-77
2021/08/18 06:12:21;;;;;;;6.72;4.93;;;16.20;72.00;;;16.28;56.36;95047.13;5026243;28;20691;-79
2021/08/18 06:14:48;;;;;;;7.80;5.10;;;16.20;72.00;;;16.36;56.87;95055.78;5026261;28;20299;-78
2021/08/18 06:17:15;;;;;;;6.13;4.72;;;16.30;72.20;;;16.36;56.31;95040.69;5039338;28;20192;-78
2021/08/18 06:19:43;;;;;;;7.55;5.18;;;16.30;71.70;;;16.48;56.40;95046.03;5042167;28;20288;-78
2021/08/18 06:22:10;;;;;;;6.30;4.78;;;16.40;71.70;;;16.55;56.11;95046.75;5019192;28;20183;-77
2021/08/18 06:27:10;;;;;;;6.18;4.80;;;16.50;71.80;;;16.73;56.38;95051.16;5042353;28;20200;-77
2021/08/18 06:29:37;;;;;;;7.22;5.38;;;16.70;71.80;;;16.77;55.92;95056.81;5013527;28;20608;-78
2021/08/18 06:32:06;;;;;;;6.18;4.80;;;16.70;71.60;;;16.84;55.95;95062.00;5025605;28;20195;-78
2021/08/18 06:34:34;;;;;;;6.70;5.00;;;16.80;71.60;;;16.90;56.06;95061.91;5029769;28;20307;-79
2021/08/18 06:37:02;;;;;;;6.03;4.35;;;16.90;71.60;;;16.94;55.53;95056.97;5041140;28;20188;-79
2021/08/18 06:39:37;;;;;;;6.60;4.70;;;16.90;71.40;;;16.98;55.96;95052.84;5043280;28;20269;-78
2021/08/18 06:42:04;;;;;;;6.13;4.35;;;16.90;71.30;;;17.00;55.60;95044.69;5026338;28;20290;-78
2021/08/18 06:44:32;;;;;;;5.82;4.60;;;17.00;71.40;;;17.10;55.51;95056.31;5032801;28;20188;-79
2021/08/18 06:46:59;;;;;;;8.48;4.28;;;17.00;71.50;;;17.12;55.50;95035.72;5034098;28;20191;-78
2021/08/18 06:49:26;;;;;;;4.53;4.00;;;17.10;71.00;;;17.18;55.14;95051.72;5026614;28;20200;-78
2021/08/18 06:51:53;;;;;;;4.93;4.07;;;17.10;71.00;;;17.24;55.53;95042.84;5040864;28;20218;-77
2021/08/18 06:54:21;;;;;;;6.10;4.20;;;17.20;71.40;;;17.30;54.81;95047.22;5016113;28;20643;-77
2021/08/18 06:56:48;;;;;;;6.13;4.10;;;17.20;71.10;;;17.38;54.68;95060.16;5043804;28;20242;-77
2021/08/18 06:59:15;;;;;;;7.07;4.70;;;17.30;71.00;;;17.38;54.57;95057.50;5044093;28;20253;-78
2021/08/18 07:01:43;;;;;;;6.00;4.22;;;17.30;70.70;;;17.31;54.82;95055.97;5019073;28;20238;-78
2021/08/18 07:04:11;;;;;;;4.93;3.30;;;17.40;70.50;;;17.20;54.85;95061.06;5034076;28;20313;-78
2021/08/18 07:06:39;;;;;;;5.03;4.00;;;17.30;70.30;;;17.11;55.05;95065.91;5052006;28;20219;-78
2021/08/18 07:09:06;;;;;;;4.85;3.58;;;17.30;70.30;;;17.09;55.23;95056.56;5033458;28;20294;-78
2021/08/18 07:11:33;;;;;;;5.47;4.13;;;17.30;70.60;;;17.09;55.23;95060.00;5021040;28;20592;-78
2021/08/18 07:14:03;;;;;;;5.00;3.88;;;17.30;70.60;;;17.15;55.50;95058.28;5036669;28;20207;-79
2021/08/18 07:16:33;;;;;;;4.57;3.80;;;17.30;70.80;;;17.25;55.23;95053.22;5030688;28;20215;-79
2021/08/18 07:19:02;;;;;;;5.32;4.10;;;17.30;70.90;;;17.35;55.23;95055.28;5023989;28;20295;-78
2021/08/18 07:21:30;;;;;;;4.95;3.65;;;17.30;71.00;;;17.47;55.30;95055.28;5048135;28;20219;-78
2021/08/18 07:23:57;;;;;;;5.07;3.72;;;17.50;71.10;;;17.56;55.26;95067.16;5034286;28;20191;-78
2021/08/18 07:26:26;;;;;;;4.93;3.72;;;17.40;70.90;;;17.68;55.29;95058.41;5034630;28;20238;-79
2021/08/18 07:28:55;;;;;;;4.50;3.53;;;17.60;71.10;;;17.73;54.34;95056.63;5014590;28;20235;-78
2021/08/18 07:31:23;;;;;;;4.90;3.75;;;17.60;70.70;;;17.74;54.21;95068.06;5007771;28;20657;-79
2021/08/18 07:33:51;;;;;;;4.20;3.40;;;17.70;70.20;;;17.65;53.65;95075.59;5031275;28;20200;-78
2021/08/18 07:36:18;;;;;;;6.03;4.07;;;17.70;70.00;;;17.64;54.41;95065.19;5031795;28;20216;-78
2021/08/18 07:38:46;;;;;;;5.13;3.95;;;17.70;70.00;;;17.58;54.44;95062.44;5015789;28;20192;-78
2021/08/18 07:41:13;;;;;;;5.47;3.70;;;17.80;70.20;;;17.61;54.08;95074.41;4998712;28;20684;-78
2021/08/18 07:43:40;;;;;;;4.10;3.30;;;17.70;70.00;;;17.63;54.13;95074.22;5013275;28;20271;-79
2021/08/18 07:46:07;;;;;;;5.22;3.88;;;17.70;70.00;;;17.71;54.46;95071.19;5014503;28;20224;-78
2021/08/18 07:48:34;;;;;;;4.65;3.30;;;17.70;70.20;;;17.77;53.76;95079.03;5033267;28;20204;-79
2021/08/18 07:51:02;;;;;;;4.60;3.97;;;17.90;70.20;;;17.86;54.30;95066.19;5049680;28;20419;-79
2021/08/18 07:53:29;;;;;;;5.05;3.70;;;17.80;70.00;;;17.94;54.04;95078.28;5033047;28;20215;-79
2021/08/18 07:55:56;;;;;;;5.18;4.03;;;17.90;70.20;;;18.00;53.71;95080.03;5038649;28;20231;-78
2021/08/18 07:58:24;;;;;;;4.57;3.60;;;18.00;70.10;;;18.06;53.78;95070.34;5014040;28;20274;-78
2021/08/18 08:00:51;;;;;;;4.65;3.67;;;18.00;70.00;;;18.17;53.53;95066.84;5031663;28;20221;-78
2021/08/18 08:03:20;;;;;;;5.03;3.97;;;18.00;69.90;;;18.28;53.42;95067.84;5015186;28;20223;-78
2021/08/18 08:05:50;;;;;;;4.60;3.58;;;18.10;69.80;;;18.44;53.82;95074.25;5020460;28;20233;-79
2021/08/18 08:08:17;;;;;;;5.47;3.90;;;18.20;70.20;;;18.48;52.06;95078.06;5051230;28;20570;-78
2021/08/18 08:10:45;;;;;;;4.55;3.65;;;18.40;69.60;;;18.49;52.79;95063.75;5034616;28;20238;-78
2021/08/18 08:13:13;;;;;;;4.78;3.67;;;18.40;69.40;;;18.47;52.40;95080.94;5044297;28;20210;-79
2021/08/18 08:15:40;;;;;;;5.35;3.47;;;18.50;69.30;;;18.48;52.67;95064.78;5031537;28;20673;-78
2021/08/18 08:18:07;;;;;;;4.20;3.60;;;18.40;69.30;;;18.63;53.55;95058.13;5031205;28;20210;-78
2021/08/18 08:20:34;;;;;;;4.13;3.20;;;18.50;69.90;;;18.77;53.08;95062.09;5035891;28;20577;-79
2021/08/18 08:23:02;;;;;;;5.18;3.28;;;18.60;69.70;;;18.89;52.25;95051.41;5034810;28;20688;-79
2021/08/18 08:25:29;;;;;;;4.22;3.40;;;18.60;69.30;;;18.98;51.66;95063.28;5032950;28;20250;-78
2021/08/18 08:27:57;;;;;;;4.30;3.50;;;18.80;68.90;;;19.08;51.91;95046.69;5014710;28;20266;-78
2021/08/18 08:30:25;;;;;;;4.72;3.42;;;18.80;69.10;;;19.19;51.74;95053.75;5014106;28;20235;-78
2021/08/18 08:32:52;;;;;;;4.18;3.40;;;18.90;68.70;;;19.23;50.87;95078.03;5014756;28;20603;-78
2021/08/18 08:35:20;;;;;;;6.72;3.30;;;19.00;68.50;;;19.17;50.74;95053.19;5014477;28;20247;-78
2021/08/18 08:37:48;;;;;;;3.55;3.03;;;19.00;68.30;;;19.22;51.24;95075.63;5026308;28;20662;-79
2021/08/18 08:40:15;;;;;;;4.90;3.28;;;19.10;68.40;;;19.21;50.33;95072.13;5033922;28;20226;-79
2021/08/18 08:42:43;;;;;;;3.30;2.80;;;19.10;68.10;;;19.25;50.76;95053.84;5023001;28;20195;-78
2021/08/18 08:45:11;;;;;;;3.88;2.70;;;19.20;68.00;;;19.27;50.46;95049.88;5012465;28;20219;-78
2021/08/18 08:47:40;;;;;;;3.30;2.72;;;19.10;67.80;;;19.39;51.30;95054.31;5021562;28;20656;-79
2021/08/18 08:50:12;;;;;;;5.43;3.60;;;19.20;68.20;;;19.47;50.84;95061.88;5036385;28;20227;-78
2021/08/18 08:52:39;;;;;;;3.40;2.88;;;19.30;67.90;;;19.47;49.98;95046.72;5041882;28;20203;-78
2021/08/18 08:55:07;;;;;;;3.67;2.90;;;19.40;67.80;;;19.52;50.16;95069.94;5027984;28;20204;-79
2021/08/18 08:57:54;;;;;;;3.63;2.78;;;19.40;67.60;;;19.50;50.65;95053.41;5043146;28;20238;-78
2021/08/18 09:00:21;;;;;;;3.47;2.80;;;19.40;68.70;;;19.51;50.64;95050.50;5023887;28;21365;-78
2021/08/18 09:03:08;;;;;;;3.55;2.40;;;19.50;67.90;;;19.67;50.94;95042.75;5025800;28;20199;-78
2021/08/18 09:05:37;;;;;;;2.72;2.42;;;19.50;68.30;;;19.87;51.12;95042.22;5012149;28;20211;-78
2021/08/18 09:08:16;;;;;;;3.80;2.92;;;19.60;68.60;;;20.05;51.09;95042.97;5018269;28;20199;-79
2021/08/18 09:11:11;;;;;;;2.85;2.33;;;19.70;68.20;;;20.17;50.37;95038.31;5011274;28;20216;-78
2021/08/18 09:13:52;;;;;;;2.50;2.28;;;19.80;68.20;;;20.30;50.38;95045.94;5021968;28;20250;-79
2021/08/18 09:16:33;;;;;;;4.15;2.58;;;19.90;68.00;;;20.43;50.25;95044.75;5040545;28;20254;-78
2021/08/18 09:19:01;;;;;;;3.40;2.88;;;20.00;67.70;;;20.52;49.30;95052.25;5025313;28;20206;-78
2021/08/18 09:21:40;;;;;;;2.65;2.30;;;20.10;67.50;;;20.50;49.33;95046.41;5023486;28;20226;-79
2021/08/18 09:24:19;;;;;;;3.10;2.30;;;20.20;66.90;;;20.39;49.17;95040.94;5007580;28;20196;-78
2021/08/18 09:27:00;;;;;;;3.63;2.05;;;20.30;66.80;;;20.32;49.30;95045.66;5025326;28;20223;-79
2021/08/18 09:29:45;;;;;;;2.20;1.88;;;20.30;66.80;;;20.21;49.38;95046.63;5025127;28;20191;-79
2021/08/18 09:32:26;;;;;;;2.42;1.95;;;20.30;66.30;;;20.08;49.28;95045.13;5023970;28;20216;-79
2021/08/18 09:35:13;;;;;;;2.72;2.15;;;20.20;66.10;;;20.00;49.89;95057.03;5008640;28;20580;-78
2021/08/18 09:38:01;;;;;;;2.00;1.80;;;20.20;66.30;;;19.94;48.87;95052.69;5026608;28;20278;-79
2021/08/18 09:40:58;;;;;;;1.90;1.80;;;20.10;66.00;;;19.79;49.38;95054.06;5008157;28;20219;-79
2021/08/18 09:43:27;;;;;;;2.13;1.85;;;20.00;66.50;;;19.78;49.83;95049.78;5033131;28;20208;-78
2021/08/18 09:46:04;;;;;;;2.40;2.15;;;19.90;66.60;;;19.75;50.00;95044.97;5045200;28;20588;-79
2021/08/18 09:48:33;;;;;;;2.10;1.90;;;19.90;66.60;;;19.79;49.99;95048.75;5042813;28;20661;-79
2021/08/18 09:51:08;;;;;;;1.90;1.80;;;19.80;67.00;;;19.82;50.52;95044.78;5010732;28;20307;-79
2021/08/18 09:53:41;;;;;;;1.95;1.75;;;19.80;67.00;;;19.86;50.92;95043.28;5045331;28;20274;-79
2021/08/18 09:56:09;;;;;;;2.00;1.80;;;19.80;67.10;;;19.86;50.29;95042.47;5028555;28;20276;-79
2021/08/18 09:58:46;;;;;;;2.28;1.83;;;19.80;66.90;;;19.85;49.78;95047.00;5043653;28;20196;-79
2021/08/18 10:01:17;;;;;;;1.95;1.75;;;19.90;66.90;;;19.79;49.97;95050.63;5040878;28;20231;-78
2021/08/18 10:03:49;;;;;;;2.22;2.03;;;19.80;67.60;;;19.76;50.28;95040.44;5026214;28;20253;-79
2021/08/18 10:06:17;;;;;;;2.47;1.70;;;19.80;66.80;;;19.77;50.53;95034.88;5028707;28;20270;-78
2021/08/18 10:08:49;;;;;;;2.38;1.83;;;19.80;66.90;;;19.79;50.26;95032.78;5016785;28;20196;-79
2021/08/18 10:11:17;;;;;;;2.10;1.77;;;19.80;66.80;;;19.84;50.16;95040.06;5033662;28;20661;-78
2021/08/18 10:13:45;;;;;;;2.58;2.10;;;19.80;67.10;;;19.91;50.51;95032.69;5049923;28;20313;-79
2021/08/18 10:16:16;;;;;;;2.17;1.83;;;19.80;67.10;;;20.03;50.79;95032.59;5033950;28;20216;-79
2021/08/18 10:18:46;;;;;;;1.80;1.70;;;19.80;67.40;;;20.20;51.07;95027.19;5017675;28;20190;-78
2021/08/18 10:21:22;;;;;;;1.92;1.70;;;19.90;67.70;;;20.46;50.36;95022.13;5019501;28;20221;-78
2021/08/18 10:23:59;;;;;;;2.25;1.60;;;20.00;67.50;;;20.71;49.14;95028.75;5036394;28;20274;-78
2021/08/18 10:26:35;;;;;;;1.92;1.80;;;20.20;67.20;;;20.86;49.29;95026.25;5051118;28;20651;-79
2021/08/18 10:29:10;;;;;;;1.95;1.60;;;20.40;67.20;;;20.86;47.99;95018.25;5035721;28;20229;-78